Time;durP1;ratioP1;P1;durP2;ratioP2;P2;SDS_P1;SDS_P2;PMS_P1;PMS_P2;Temp;Humidity;BMP_temperature;BMP_pressure;BME280_temperature;BME280_humidity;BME280_pressure;Samples;Min_cycle;Max_cycle;Signal;HPM_P1;HPM_P2
2021/06/17 00:02:12;;;;;;;6.28;3.30;;;19.60;99.90;;;;;;4338081;32;20224;-75
2021/06/17 00:04:38;;;;;;;6.12;3.20;;;19.60;99.90;;;;;;4338255;32;20066;-75
2021/06/17 00:07:04;;;;;;;4.72;2.70;;;19.50;99.90;;;;;;4338430;32;20118;-75
2021/06/17 00:09:31;;;;;;;4.20;3.55;;;19.60;99.90;;;;;;4325437;32;20519;-74
2021/06/17 00:12:00;;;;;;;6.35;3.10;;;19.60;99.90;;;;;;4313597;32;20090;-75
2021/06/17 00:14:31;;;;;;;5.35;3.17;;;19.50;99.90;;;;;;4326363;32;20082;-74
2021/06/17 00:16:58;;;;;;;6.22;2.70;;;19.60;99.90;;;;;;4344364;32;20077;-75
2021/06/17 00:19:24;;;;;;;7.65;3.10;;;19.50;99.90;;;;;;4352633;32;20071;-76
2021/06/17 00:21:51;;;;;;;6.50;3.10;;;19.50;99.90;;;;;;4352355;32;20073;-75
2021/06/17 00:24:17;;;;;;;7.50;2.75;;;19.50;99.90;;;;;;4315956;32;20453;-76
2021/06/17 00:26:44;;;;;;;4.68;2.75;;;19.40;99.90;;;;;;4340387;32;20063;-75
2021/06/17 00:29:11;;;;;;;4.50;2.50;;;19.40;99.90;;;;;;4340286;32;20078;-76
2021/06/17 00:31:38;;;;;;;5.47;2.87;;;19.30;99.90;;;;;;4340081;32;20504;-75
2021/06/17 00:34:08;;;;;;;4.85;2.95;;;19.30;99.90;;;;;;4340252;32;20157;-75
2021/06/17 00:36:37;;;;;;;6.18;2.90;;;19.30;99.90;;;;;;4359651;32;20078;-75
2021/06/17 00:39:08;;;;;;;5.57;3.03;;;19.30;99.90;;;;;;4338485;32;20074;-76
2021/06/17 00:41:39;;;;;;;8.98;3.12;;;19.30;99.90;;;;;;4338129;32;20071;-75
2021/06/17 00:44:05;;;;;;;6.70;3.03;;;19.20;99.90;;;;;;4337766;32;20090;-76
2021/06/17 00:46:32;;;;;;;7.32;3.58;;;19.20;99.90;;;;;;4337732;32;20485;-75
2021/06/17 00:48:58;;;;;;;4.37;2.70;;;19.20;99.90;;;;;;4337747;32;20157;-75
2021/06/17 00:51:24;;;;;;;6.80;3.30;;;19.20;99.90;;;;;;4325561;32;20070;-77
2021/06/17 00:53:50;;;;;;;6.37;2.95;;;19.20;99.90;;;;;;4336475;32;20152;-76
2021/06/17 00:56:17;;;;;;;8.65;3.40;;;19.20;99.90;;;;;;4350108;32;20437;-75
2021/06/17 00:58:44;;;;;;;5.32;3.40;;;19.30;99.90;;;;;;4326418;32;20073;-75
2021/06/17 01:01:10;;;;;;;5.50;3.10;;;19.20;99.90;;;;;;4325430;32;20179;-75
2021/06/17 01:03:36;;;;;;;4.00;2.62;;;19.30;99.90;;;;;;4337481;32;20102;-75
2021/06/17 01:06:02;;;;;;;6.60;2.85;;;19.20;99.90;;;;;;4350009;32;20059;-76
2021/06/17 01:08:44;;;;;;;3.72;2.22;;;19.30;99.90;;;;;;4353322;32;20077;-75
2021/06/17 01:11:41;;;;;;;5.20;3.12;;;19.30;99.90;;;;;;4353276;32;20070;-75
2021/06/17 01:14:19;;;;;;;4.45;2.80;;;19.40;99.90;;;;;;4379571;32;20093;-75
2021/06/17 01:17:02;;;;;;;6.60;3.00;;;19.40;99.90;;;;;;4362330;32;20464;-75
2021/06/17 01:19:34;;;;;;;6.25;3.28;;;19.40;99.90;;;;;;4333175;32;20508;-76
2021/06/17 01:22:46;;;;;;;5.62;3.30;;;19.30;99.90;;;;;;4339781;32;20074;-76
2021/06/17 01:25:31;;;;;;;5.22;3.00;;;19.30;99.90;;;;;;4346236;32;20094;-75
2021/06/17 01:28:11;;;;;;;6.55;3.45;;;19.40;99.90;;;;;;4345848;32;20063;-76
2021/06/17 01:31:03;;;;;;;4.75;2.92;;;19.30;99.90;;;;;;4342102;32;20066;-75
2021/06/17 01:33:35;;;;;;;5.90;3.12;;;19.30;99.90;;;;;;4339687;32;20452;-76
2021/06/17 01:36:05;;;;;;;3.47;2.62;;;19.30;99.90;;;;;;4330268;32;20489;-77
2021/06/17 01:38:32;;;;;;;6.53;3.00;;;19.30;99.90;;;;;;4342189;32;20170;-76
2021/06/17 01:40:58;;;;;;;4.47;2.83;;;19.30;99.90;;;;;;4324716;32;20594;-76
2021/06/17 01:43:25;;;;;;;6.47;2.90;;;19.30;99.90;;;;;;4314238;32;20069;-77
2021/06/17 01:45:52;;;;;;;3.55;3.05;;;19.40;99.90;;;;;;4313590;32;20064;-76
2021/06/17 01:48:18;;;;;;;5.62;2.80;;;19.30;99.90;;;;;;4324802;32;20071;-76
2021/06/17 01:50:46;;;;;;;3.50;2.47;;;19.40;99.90;;;;;;4337090;32;20098;-76
2021/06/17 01:53:14;;;;;;;7.75;3.12;;;19.40;99.90;;;;;;4324727;32;20070;-75
2021/06/17 01:55:40;;;;;;;6.85;2.53;;;19.40;99.90;;;;;;4312579;32;20070;-75
2021/06/17 01:58:10;;;;;;;6.93;2.70;;;19.40;99.90;;;;;;4324676;32;20183;-75
2021/06/17 02:00:38;;;;;;;4.57;3.03;;;19.50;99.90;;;;;;4349138;32;20089;-74
2021/06/17 02:03:06;;;;;;;4.18;3.15;;;19.40;99.90;;;;;;4312632;32;20157;-75
2021/06/17 02:05:34;;;;;;;7.28;3.28;;;19.40;99.90;;;;;;4350514;32;20089;-74
2021/06/17 02:08:00;;;;;;;4.10;2.85;;;19.40;99.90;;;;;;4327297;32;20089;-75
2021/06/17 02:10:27;;;;;;;4.43;3.22;;;19.40;99.90;;;;;;4351419;32;20078;-75
2021/06/17 02:12:54;;;;;;;6.55;3.22;;;19.40;99.90;;;;;;4326849;32;20065;-74
2021/06/17 02:15:23;;;;;;;4.37;3.03;;;19.40;99.90;;;;;;4351326;32;20089;-76
2021/06/17 02:17:50;;;;;;;6.62;3.08;;;19.40;99.90;;;;;;4327372;32;20079;-75
2021/06/17 02:20:17;;;;;;;4.18;2.80;;;19.50;99.90;;;;;;4324067;32;20189;-75
2021/06/17 02:22:43;;;;;;;4.00;2.90;;;19.50;99.90;;;;;;4324391;32;20082;-75
2021/06/17 02:25:10;;;;;;;5.43;3.40;;;19.40;99.90;;;;;;4323199;32;20063;-76
2021/06/17 02:27:37;;;;;;;6.47;3.15;;;19.40;99.90;;;;;;4336496;32;20155;-76
2021/06/17 02:30:09;;;;;;;3.92;2.95;;;19.40;99.90;;;;;;4323675;32;20066;-75
2021/06/17 02:32:48;;;;;;;6.05;3.50;;;19.40;99.90;;;;;;4323925;32;20070;-75
2021/06/17 02:35:19;;;;;;;7.82;3.17;;;19.40;99.90;;;;;;4324681;32;20097;-75
2021/06/17 02:37:45;;;;;;;5.93;3.20;;;19.40;99.90;;;;;;4346145;32;20081;-75
2021/06/17 02:40:12;;;;;;;8.40;3.42;;;19.30;99.90;;;;;;4323966;32;20445;-75
2021/06/17 02:42:38;;;;;;;6.25;3.33;;;19.30;99.90;;;;;;4336028;32;20070;-75
2021/06/17 02:45:06;;;;;;;4.55;3.12;;;19.30;99.90;;;;;;4335815;32;20065;-77
2021/06/17 02:47:33;;;;;;;5.90;3.55;;;19.30;99.90;;;;;;4336341;32;20067;-76
2021/06/17 02:49:59;;;;;;;4.30;3.20;;;19.20;99.90;;;;;;4348581;32;20081;-76
2021/06/17 02:52:25;;;;;;;4.28;3.37;;;19.10;99.90;;;;;;4347887;32;20089;-76
2021/06/17 02:54:51;;;;;;;5.40;3.37;;;19.10;99.90;;;;;;4362207;32;20069;-76
2021/06/17 02:57:31;;;;;;;4.43;3.20;;;19.20;99.90;;;;;;4348045;32;20078;-76
2021/06/17 03:00:17;;;;;;;6.15;3.62;;;19.10;99.90;;;;;;4324867;32;20062;-76
2021/06/17 03:03:03;;;;;;;4.95;3.55;;;19.10;99.90;;;;;;4335759;32;20134;-76
2021/06/17 03:05:41;;;;;;;5.07;3.12;;;19.20;99.90;;;;;;4350352;32;20094;-76
2021/06/17 03:08:21;;;;;;;5.10;3.47;;;19.10;99.90;;;;;;4350330;32;20065;-75
2021/06/17 03:10:52;;;;;;;6.35;3.20;;;19.20;99.90;;;;;;4350543;32;20068;-75
2021/06/17 03:13:21;;;;;;;5.00;3.30;;;19.10;99.90;;;;;;4338014;32;20092;-76
2021/06/17 03:15:47;;;;;;;4.40;3.10;;;19.20;99.90;;;;;;4350206;32;20480;-75
2021/06/17 03:18:15;;;;;;;3.47;2.83;;;19.10;99.90;;;;;;4312627;32;20109;-76
2021/06/17 03:20:42;;;;;;;4.72;3.22;;;19.00;99.90;;;;;;4326078;32;20161;-75
2021/06/17 03:23:16;;;;;;;6.78;3.45;;;19.10;99.90;;;;;;4323416;32;20097;-76
2021/06/17 03:25:44;;;;;;;5.22;3.50;;;19.10;99.90;;;;;;4318074;33;20522;-77
2021/06/17 03:28:12;;;;;;;5.78;3.47;;;19.20;99.90;;;;;;4306707;33;20066;-76
2021/06/17 03:30:39;;;;;;;3.95;2.35;;;19.20;99.90;;;;;;4318616;33;20059;-76
2021/06/17 03:33:05;;;;;;;3.37;2.62;;;19.30;99.90;;;;;;4281945;33;20101;-77
2021/06/17 03:35:32;;;;;;;7.75;3.62;;;19.40;99.90;;;;;;4318712;33;20068;-77
2021/06/17 03:37:59;;;;;;;5.00;3.45;;;19.30;99.90;;;;;;4320891;33;20523;-76
2021/06/17 03:40:26;;;;;;;5.18;3.58;;;19.30;99.90;;;;;;4308996;33;20097;-76
2021/06/17 03:42:52;;;;;;;5.40;3.33;;;19.40;99.90;;;;;;4333073;33;20072;-76
2021/06/17 03:45:19;;;;;;;5.85;2.97;;;19.80;99.90;;;;;;4345258;33;20166;-76
2021/06/17 03:47:48;;;;;;;4.85;3.60;;;19.90;99.90;;;;;;4320410;33;20310;-76
2021/06/17 03:50:15;;;;;;;7.50;3.10;;;19.90;99.90;;;;;;4344804;33;20089;-76
2021/06/17 03:52:46;;;;;;;7.25;3.42;;;19.90;99.90;;;;;;4345393;33;20076;-75
2021/06/17 03:55:15;;;;;;;7.00;3.92;;;19.60;99.90;;;;;;4332682;33;20171;-78
2021/06/17 03:57:41;;;;;;;4.03;3.42;;;19.60;99.90;;;;;;4333076;33;20086;-76
2021/06/17 04:00:09;;;;;;;3.30;3.00;;;19.60;99.90;;;;;;4308649;33;20071;-76
2021/06/17 04:02:35;;;;;;;4.82;3.47;;;19.60;99.90;;;;;;4345341;33;20094;-75
2021/06/17 04:05:02;;;;;;;6.62;3.50;;;19.90;99.90;;;;;;4345038;32;20226;-77
2021/06/17 04:07:28;;;;;;;4.15;2.40;;;19.90;99.90;;;;;;4332919;33;20533;-76
2021/06/17 04:09:56;;;;;;;5.80;3.90;;;19.90;99.90;;;;;;4320298;33;20082;-76
2021/06/17 04:12:22;;;;;;;4.87;3.70;;;19.80;99.90;;;;;;4332520;33;20062;-76
2021/06/17 04:14:51;;;;;;;4.78;3.50;;;19.80;99.90;;;;;;4332396;33;20640;-75
2021/06/17 04:17:47;;;;;;;5.45;3.37;;;19.70;99.90;;;;;;4345052;32;20064;-77
2021/06/17 04:20:27;;;;;;;7.82;4.10;;;19.50;99.90;;;;;;4345199;32;20524;-76
2021/06/17 04:22:54;;;;;;;7.68;3.75;;;19.50;99.90;;;;;;4332494;32;20446;-76
2021/06/17 04:25:21;;;;;;;5.62;3.95;;;19.70;99.90;;;;;;4330346;33;20091;-75
2021/06/17 04:27:49;;;;;;;3.87;3.47;;;19.80;99.90;;;;;;4306580;33;20205;-76
2021/06/17 04:30:18;;;;;;;6.65;4.00;;;19.70;99.90;;;;;;4321416;33;20091;-76
2021/06/17 04:32:46;;;;;;;4.40;2.95;;;19.50;99.90;;;;;;4310734;33;20234;-75
2021/06/17 04:35:14;;;;;;;5.82;3.60;;;21.00;99.90;;;;;;4311333;33;20067;-75
2021/06/17 04:37:40;;;;;;;6.87;3.40;;;22.10;99.90;;;;;;4332476;33;20083;-76
2021/06/17 04:40:08;;;;;;;5.20;3.83;;;22.60;99.90;;;;;;4296565;33;20083;-75
2021/06/17 04:42:34;;;;;;;4.85;3.37;;;21.80;99.90;;;;;;4308960;33;20165;-75
2021/06/17 04:45:01;;;;;;;6.25;3.60;;;20.90;99.90;;;;;;4308338;33;20494;-76
2021/06/17 04:47:27;;;;;;;4.60;3.28;;;20.30;99.90;;;;;;4308672;33;20168;-75
2021/06/17 04:49:53;;;;;;;5.53;3.42;;;19.90;99.90;;;;;;4320464;33;20078;-76
2021/06/17 04:52:36;;;;;;;6.65;4.22;;;20.00;99.90;;;;;;4313228;33;20084;-76
2021/06/17 04:55:04;;;;;;;4.18;3.08;;;20.60;99.90;;;;;;4335615;33;20086;-76
2021/06/17 04:57:30;;;;;;;8.25;3.35;;;20.10;99.90;;;;;;4335690;33;20079;-76
2021/06/17 04:59:56;;;;;;;5.35;3.67;;;20.30;99.90;;;;;;4336029;33;20144;-76
2021/06/17 05:02:22;;;;;;;7.25;3.60;;;20.60;99.90;;;;;;4334655;33;20494;-76
2021/06/17 05:04:48;;;;;;;5.37;3.20;;;20.50;99.90;;;;;;4335310;33;20086;-76
2021/06/17 05:12:26;;;;;;;9.07;3.60;;;22.30;99.90;;;;;;4347056;33;20098;-75
2021/06/17 05:14:52;;;;;;;4.82;3.60;;;22.20;99.90;;;;;;4334649;33;20063;-75
2021/06/17 05:17:18;;;;;;;5.75;3.80;;;22.00;99.90;;;;;;4326098;33;20087;-75
2021/06/17 05:19:44;;;;;;;5.12;3.42;;;22.40;99.90;;;;;;4333365;33;20074;-75
2021/06/17 05:22:11;;;;;;;4.55;3.10;;;22.00;99.90;;;;;;4319889;33;20529;-76
2021/06/17 05:24:38;;;;;;;5.40;3.62;;;22.80;99.90;;;;;;4312974;33;20169;-76
2021/06/17 05:27:06;;;;;;;5.85;3.40;;;22.00;99.90;;;;;;4307938;33;20097;-77
2021/06/17 05:29:32;;;;;;;5.70;3.78;;;22.10;99.90;;;;;;4320227;33;20160;-77
2021/06/17 05:31:59;;;;;;;5.00;3.65;;;22.40;99.90;;;;;;4308090;33;20130;-76
2021/06/17 05:34:25;;;;;;;4.95;3.83;;;22.20;99.90;;;;;;4320233;33;20087;-75
2021/06/17 05:36:51;;;;;;;6.25;3.85;;;21.70;99.90;;;;;;4325897;33;20461;-76
2021/06/17 05:39:17;;;;;;;5.65;3.67;;;21.70;99.90;;;;;;4321337;33;20175;-76
2021/06/17 05:41:44;;;;;;;4.65;3.42;;;22.60;99.90;;;;;;4310356;33;20070;-75
2021/06/17 05:44:10;;;;;;;5.22;3.42;;;22.50;99.90;;;;;;4333963;33;20090;-76
2021/06/17 05:46:42;;;;;;;7.10;3.90;;;22.80;99.90;;;;;;4295958;33;20144;-75
2021/06/17 05:49:08;;;;;;;5.22;4.18;;;23.40;99.90;;;;;;4333015;33;20074;-76
2021/06/17 05:51:35;;;;;;;6.18;3.45;;;21.90;99.90;;;;;;4295602;33;20083;-76
2021/06/17 05:54:02;;;;;;;4.97;3.50;;;22.90;99.90;;;;;;4307168;33;20518;-76
2021/06/17 05:56:28;;;;;;;3.72;2.97;;;21.80;99.90;;;;;;4319211;33;20118;-76
2021/06/17 05:58:55;;;;;;;3.95;3.17;;;22.60;99.90;;;;;;4331515;33;20162;-75
2021/06/17 06:01:21;;;;;;;4.47;3.60;;;22.90;99.90;;;;;;4307229;33;20067;-75
2021/06/17 06:03:48;;;;;;;4.22;3.42;;;22.80;99.90;;;;;;4331739;33;20087;-74
2021/06/17 06:06:14;;;;;;;4.65;4.00;;;22.30;99.90;;;;;;4344583;33;20165;-76
2021/06/17 06:08:41;;;;;;;4.68;3.50;;;22.90;99.90;;;;;;4346040;32;20536;-76
2021/06/17 06:11:07;;;;;;;4.45;3.28;;;23.20;99.90;;;;;;4333754;33;20066;-76
2021/06/17 06:13:33;;;;;;;5.80;4.10;;;23.10;99.90;;;;;;4346133;33;20086;-75
2021/06/17 06:16:00;;;;;;;3.97;3.55;;;23.30;99.90;;;;;;4347973;32;20090;-76
2021/06/17 06:18:26;;;;;;;4.12;3.42;;;23.30;99.90;;;;;;4334300;33;20134;-75
2021/06/17 06:20:59;;;;;;;5.75;3.55;;;22.60;99.90;;;;;;4347282;32;20122;-76
2021/06/17 06:23:26;;;;;;;6.82;3.58;;;22.90;99.90;;;;;;4310828;32;20172;-75
2021/06/17 06:25:52;;;;;;;7.43;3.80;;;23.80;99.90;;;;;;4323536;32;20558;-76
2021/06/17 06:28:20;;;;;;;6.82;3.60;;;23.90;99.90;;;;;;4336479;32;20697;-76
2021/06/17 06:30:50;;;;;;;4.80;3.37;;;23.20;99.90;;;;;;4324599;32;20081;-76
2021/06/17 06:33:20;;;;;;;5.90;3.83;;;22.70;99.90;;;;;;4337997;32;20097;-75
2021/06/17 06:35:47;;;;;;;3.92;2.97;;;22.40;99.90;;;;;;4336263;32;20074;-76
2021/06/17 06:38:14;;;;;;;5.37;3.70;;;22.30;99.90;;;;;;4323840;32;20077;-77
2021/06/17 06:40:40;;;;;;;3.92;3.50;;;22.10;99.90;;;;;;4323505;32;20074;-76
2021/06/17 06:43:08;;;;;;;5.18;3.22;;;22.40;99.90;;;;;;4323691;32;20097;-76
2021/06/17 06:45:34;;;;;;;5.05;3.33;;;22.50;99.90;;;;;;4323506;32;20093;-75
2021/06/17 06:48:01;;;;;;;4.20;3.20;;;22.00;99.90;;;;;;4324036;32;20449;-75
2021/06/17 06:50:28;;;;;;;6.05;3.20;;;21.80;99.90;;;;;;4322996;32;20502;-76
2021/06/17 06:52:54;;;;;;;5.20;2.67;;;21.90;99.90;;;;;;4339377;32;20145;-76
2021/06/17 06:55:21;;;;;;;3.47;2.85;;;22.30;99.90;;;;;;4311694;32;20077;-76
2021/06/17 06:57:48;;;;;;;5.00;3.20;;;22.30;99.90;;;;;;4323542;32;20077;-75
2021/06/17 07:00:15;;;;;;;3.65;3.17;;;21.60;99.90;;;;;;4311861;32;20086;-77
2021/06/17 07:02:42;;;;;;;3.75;2.95;;;21.70;99.90;;;;;;4323665;32;20055;-77
2021/06/17 07:05:09;;;;;;;5.80;2.97;;;21.80;99.90;;;;;;4330174;32;20081;-75
2021/06/17 07:07:35;;;;;;;3.83;2.72;;;21.90;99.90;;;;;;4338052;32;20151;-75
2021/06/17 07:10:03;;;;;;;6.78;3.15;;;22.50;99.90;;;;;;4337951;32;20078;-76
2021/06/17 07:12:29;;;;;;;2.30;2.05;;;22.30;99.90;;;;;;4350460;32;20081;-75
2021/06/17 07:14:58;;;;;;;1.60;1.50;;;22.50;99.30;;;;;;4338075;32;20489;-76
2021/06/17 07:17:25;;;;;;;5.30;2.60;;;22.50;93.30;;;;;;4353392;32;20085;-76
2021/06/17 07:19:55;;;;;;;2.20;2.00;;;22.00;91.70;;;;;;4335749;32;20082;-76
2021/06/17 07:22:25;;;;;;;4.00;2.55;;;22.20;91.30;;;;;;4324364;32;20094;-76
2021/06/17 07:24:55;;;;;;;4.00;2.37;;;22.20;91.00;;;;;;4312098;32;20127;-76
2021/06/17 07:27:22;;;;;;;2.53;2.20;;;22.60;86.10;;;;;;4324397;32;20070;-75
2021/06/17 07:29:49;;;;;;;3.55;2.10;;;22.20;81.60;;;;;;4322876;32;20087;-75
2021/06/17 07:32:15;;;;;;;1.55;1.42;;;22.40;74.80;;;;;;4335463;32;20073;-76
2021/06/17 07:34:44;;;;;;;3.25;2.12;;;22.70;66.40;;;;;;4323027;32;20082;-75
2021/06/17 07:37:10;;;;;;;2.53;1.87;;;22.90;61.80;;;;;;4323683;32;20151;-76
2021/06/17 07:39:36;;;;;;;2.00;1.73;;;22.70;59.40;;;;;;4335177;32;20093;-75
2021/06/17 07:42:03;;;;;;;4.10;2.08;;;22.60;57.00;;;;;;4323385;32;20075;-75
2021/06/17 07:44:29;;;;;;;3.37;1.65;;;23.00;53.50;;;;;;4322987;32;20071;-76
2021/06/17 07:46:55;;;;;;;2.30;1.60;;;23.00;51.80;;;;;;4322886;32;20128;-76
2021/06/17 07:49:22;;;;;;;3.35;1.80;;;23.10;50.40;;;;;;4322725;32;20074;-75
2021/06/17 07:51:48;;;;;;;1.85;1.52;;;23.10;49.30;;;;;;4323191;32;20063;-75
2021/06/17 07:54:18;;;;;;;4.50;1.73;;;22.80;50.70;;;;;;4310431;32;20078;-76
2021/06/17 07:56:45;;;;;;;3.55;1.80;;;22.90;50.30;;;;;;4347983;32;20076;-75
2021/06/17 07:59:12;;;;;;;1.92;1.33;;;22.80;48.20;;;;;;4311272;32;20075;-75
2021/06/17 08:01:38;;;;;;;3.00;1.70;;;22.90;48.70;;;;;;4335913;32;20087;-75
2021/06/17 08:04:07;;;;;;;13.35;2.35;;;22.60;48.20;;;;;;4350915;32;20113;-76
2021/06/17 08:06:33;;;;;;;5.12;1.90;;;23.00;48.80;;;;;;4359147;32;20920;-73
2021/06/17 08:09:00;;;;;;;3.60;1.50;;;22.80;48.50;;;;;;4354096;32;20094;-73
2021/06/17 08:11:27;;;;;;;4.45;1.70;;;23.50;48.60;;;;;;4337655;32;20430;-73
2021/06/17 08:13:53;;;;;;;4.72;1.65;;;22.90;46.40;;;;;;4343928;32;20149;-73
2021/06/17 08:16:19;;;;;;;3.40;1.90;;;23.60;47.40;;;;;;4355175;32;20529;-72
2021/06/17 08:18:46;;;;;;;4.53;1.73;;;23.70;46.60;;;;;;4354160;32;20591;-73
2021/06/17 08:21:12;;;;;;;2.78;1.52;;;23.50;44.50;;;;;;4337105;32;20077;-73
2021/06/17 08:23:38;;;;;;;4.00;1.65;;;23.90;44.10;;;;;;4348323;32;20224;-70
2021/06/17 08:26:04;;;;;;;3.60;1.87;;;23.30;43.20;;;;;;4347058;32;20081;-68
2021/06/17 08:28:31;;;;;;;2.80;1.75;;;23.50;42.30;;;;;;4347547;32;20109;-71
2021/06/17 08:30:57;;;;;;;3.45;1.70;;;23.20;43.10;;;;;;4337804;32;20198;-69
2021/06/17 08:33:23;;;;;;;6.05;2.37;;;23.70;43.70;;;;;;4335664;32;20074;-70
2021/06/17 08:35:52;;;;;;;4.53;2.40;;;24.00;42.30;;;;;;4360856;32;20097;-71
2021/06/17 08:38:21;;;;;;;5.10;2.22;;;23.50;41.60;;;;;;4335025;32;20110;-73
2021/06/17 08:40:48;;;;;;;2.12;1.77;;;23.20;43.00;;;;;;4343793;32;20171;-73
2021/06/17 08:43:14;;;;;;;4.97;2.42;;;23.80;42.30;;;;;;4326014;32;20089;-72
2021/06/17 08:45:40;;;;;;;4.62;1.87;;;23.60;42.20;;;;;;4349794;32;20116;-71
2021/06/17 08:48:07;;;;;;;3.50;1.87;;;23.40;39.00;;;;;;4337461;32;20098;-74
2021/06/17 08:50:33;;;;;;;1.60;1.50;;;23.60;42.00;;;;;;4335424;32;20114;-73
2021/06/17 08:53:00;;;;;;;3.70;1.62;;;23.80;41.30;;;;;;4342359;32;20109;-70
2021/06/17 08:55:28;;;;;;;1.90;1.65;;;24.20;42.60;;;;;;4324076;32;20157;-73
2021/06/17 08:57:56;;;;;;;4.78;1.80;;;23.50;40.90;;;;;;4333817;32;20082;-73
2021/06/17 09:00:23;;;;;;;2.35;1.75;;;24.20;40.90;;;;;;4339302;32;20082;-71
2021/06/17 09:03:16;;;;;;;3.95;1.77;;;24.20;40.30;;;;;;4363793;32;20163;-72
2021/06/17 09:05:54;;;;;;;2.95;1.33;;;24.00;42.40;;;;;;4342948;32;20070;-74
2021/06/17 09:08:30;;;;;;;2.65;1.40;;;23.80;39.40;;;;;;4340658;32;20094;-74
2021/06/17 09:10:57;;;;;;;2.97;2.00;;;23.80;39.40;;;;;;4347297;32;20100;-72
2021/06/17 09:13:30;;;;;;;2.53;1.23;;;23.50;38.40;;;;;;4339251;32;20076;-72
2021/06/17 09:15:56;;;;;;;3.65;1.52;;;23.70;36.70;;;;;;4337568;32;20452;-75
2021/06/17 09:18:30;;;;;;;2.67;1.85;;;23.60;36.00;;;;;;4325124;32;20440;-74
2021/06/17 09:21:01;;;;;;;10.55;1.77;;;24.00;36.20;;;;;;4342557;32;20106;-75
2021/06/17 09:23:36;;;;;;;3.70;1.20;;;24.40;36.60;;;;;;4354011;32;20185;-75
2021/06/17 09:26:12;;;;;;;6.57;1.70;;;24.00;36.60;;;;;;4362422;32;20066;-76
2021/06/17 09:28:47;;;;;;;;;;;24.00;37.30;;;;;;4345258;32;20074;-76
2021/06/17 09:31:25;;;;;;;2.83;1.60;;;24.30;36.30;;;;;;4356604;32;19965;-78
2021/06/17 09:33:52;;;;;;;2.62;1.50;;;24.00;37.30;;;;;;4307913;32;20081;-76
2021/06/17 09:36:29;;;;;;;6.30;1.77;;;24.40;37.30;;;;;;4343145;32;20082;-76
2021/06/17 09:39:03;;;;;;;8.68;2.00;;;24.40;35.90;;;;;;4330073;32;20540;-76
2021/06/17 09:41:43;;;;;;;4.37;1.70;;;24.20;35.60;;;;;;4346508;32;20147;-76
2021/06/17 09:44:37;;;;;;;4.18;1.50;;;24.40;36.50;;;;;;4345170;32;20074;-75
2021/06/17 09:47:08;;;;;;;2.42;1.60;;;24.20;35.90;;;;;;4348372;32;20071;-72
2021/06/17 09:49:35;;;;;;;2.03;1.20;;;23.80;35.30;;;;;;4351829;32;20518;-71
2021/06/17 09:52:02;;;;;;;1.33;1.20;;;24.60;35.20;;;;;;4335806;32;20069;-73
2021/06/17 09:54:36;;;;;;;2.55;1.50;;;24.70;34.40;;;;;;4325094;32;20521;-68
2021/06/17 09:57:07;;;;;;;3.40;1.60;;;24.20;35.30;;;;;;4345790;32;20342;-69
2021/06/17 09:59:39;;;;;;;2.22;1.60;;;24.30;35.30;;;;;;4349397;32;20070;-69
2021/06/17 10:02:08;;;;;;;3.55;1.50;;;24.60;34.30;;;;;;4330941;32;20073;-68
2021/06/17 10:04:36;;;;;;;3.90;1.42;;;24.30;33.60;;;;;;4327646;32;20185;-67
2021/06/17 10:07:03;;;;;;;2.83;1.33;;;24.30;34.50;;;;;;4347749;32;20078;-68
2021/06/17 10:09:29;;;;;;;2.05;1.45;;;24.70;33.50;;;;;;4348374;32;20055;-67
2021/06/17 10:11:57;;;;;;;1.58;1.25;;;24.30;34.00;;;;;;4338748;32;20169;-71
2021/06/17 10:14:27;;;;;;;4.87;1.70;;;24.40;33.90;;;;;;4332081;32;20063;-69
2021/06/17 10:16:55;;;;;;;2.60;1.12;;;24.70;33.90;;;;;;4326814;32;20074;-70
2021/06/17 10:19:21;;;;;;;2.42;1.45;;;24.70;33.30;;;;;;4335881;32;20449;-67
2021/06/17 10:21:48;;;;;;;2.17;1.10;;;24.70;33.40;;;;;;4328244;32;20068;-67
2021/06/17 10:24:17;;;;;;;2.28;1.30;;;25.00;31.60;;;;;;4314390;32;20082;-62
2021/06/17 10:26:47;;;;;;;3.25;1.60;;;24.90;32.40;;;;;;4318832;32;20083;-70
2021/06/17 10:29:27;;;;;;;2.28;1.75;;;24.40;32.50;;;;;;4335409;32;20504;-73
2021/06/17 10:31:58;;;;;;;2.05;1.80;;;24.90;33.10;;;;;;4333110;32;20121;-68
2021/06/17 10:34:24;;;;;;;2.12;1.48;;;24.80;32.80;;;;;;4334526;32;20101;-67
2021/06/17 10:37:28;;;;;;;3.60;1.80;;;24.70;32.20;;;;;;4339613;32;20090;-67
2021/06/17 10:40:04;;;;;;;2.42;1.50;;;24.30;32.00;;;;;;4324809;32;20077;-66
2021/06/17 10:42:46;;;;;;;2.95;1.55;;;24.50;32.90;;;;;;4312101;32;20158;-68
2021/06/17 10:45:33;;;;;;;2.53;1.60;;;25.00;32.10;;;;;;4312388;32;20161;-68
2021/06/17 10:48:11;;;;;;;1.40;1.23;;;24.90;32.30;;;;;;4340181;32;20075;-67
2021/06/17 10:51:05;;;;;;;3.78;1.70;;;25.20;32.60;;;;;;4335740;32;20165;-68
2021/06/17 10:53:45;;;;;;;2.95;1.75;;;24.90;33.10;;;;;;4314207;32;20150;-66
2021/06/17 10:56:26;;;;;;;1.02;1.02;;;25.00;33.30;;;;;;4335091;32;20082;-67
2021/06/17 10:58:55;;;;;;;3.33;1.58;;;24.50;34.00;;;;;;4337151;32;20475;-69
2021/06/17 11:01:36;;;;;;;1.05;0.95;;;24.90;33.70;;;;;;4312011;32;20078;-69
2021/06/17 11:04:33;;;;;;;4.65;1.30;;;25.00;33.50;;;;;;4336389;32;20521;-67
2021/06/17 11:07:02;;;;;;;4.25;1.62;;;24.50;34.30;;;;;;4335772;32;20158;-65
2021/06/17 11:09:37;;;;;;;1.52;1.42;;;24.70;34.60;;;;;;4350348;32;20098;-74
2021/06/17 11:12:13;;;;;;;2.12;1.83;;;24.90;35.10;;;;;;4361466;32;20104;-73
2021/06/17 11:14:41;;;;;;;;;;;24.60;34.40;;;;;;4351808;32;20074;-74
2021/06/17 11:20:06;;;;;;;3.58;1.77;;;25.20;33.80;;;;;;4360465;32;20113;-76
2021/06/17 11:22:43;;;;;;;1.50;1.40;;;25.40;33.50;;;;;;4338068;32;20080;-70
2021/06/17 11:25:21;;;;;;;3.10;1.58;;;24.90;33.90;;;;;;4343686;32;20069;-69
2021/06/17 11:28:03;;;;;;;3.20;1.73;;;24.80;33.90;;;;;;4342363;32;20448;-70
2021/06/17 11:30:39;;;;;;;6.15;2.10;;;25.40;33.80;;;;;;4323289;32;20079;-70
2021/06/17 11:33:18;;;;;;;3.28;2.00;;;25.00;33.60;;;;;;4338335;32;21426;-68
2021/06/17 11:35:49;;;;;;;6.37;1.85;;;25.20;33.80;;;;;;4358340;32;20509;-70
2021/06/17 11:38:33;;;;;;;2.87;1.48;;;25.00;33.90;;;;;;4345884;32;20591;-71
2021/06/17 11:41:08;;;;;;;1.67;1.58;;;25.20;34.20;;;;;;4336811;32;20100;-67
2021/06/17 11:43:34;;;;;;;1.75;1.58;;;25.20;33.40;;;;;;4331472;32;20101;-71
2021/06/17 11:46:00;;;;;;;2.60;1.58;;;25.20;34.40;;;;;;4337154;32;20166;-73
2021/06/17 11:48:27;;;;;;;6.28;2.03;;;25.50;34.40;;;;;;4341992;32;20178;-72
2021/06/17 11:50:54;;;;;;;4.05;1.92;;;25.20;33.60;;;;;;4342827;32;20070;-72
2021/06/17 11:53:23;;;;;;;6.05;1.67;;;25.00;33.90;;;;;;4318871;32;20617;-72
2021/06/17 11:55:55;;;;;;;1.60;1.50;;;25.40;33.40;;;;;;4343138;32;20106;-72
2021/06/17 11:58:28;;;;;;;3.28;1.73;;;25.30;33.30;;;;;;4331890;32;20059;-70
2021/06/17 12:00:57;;;;;;;6.03;1.55;;;25.10;32.90;;;;;;4313413;32;20531;-72
2021/06/17 12:03:24;;;;;;;5.05;1.92;;;25.40;33.60;;;;;;4325920;32;20094;-70
2021/06/17 12:05:51;;;;;;;3.40;1.75;;;25.10;33.20;;;;;;4330691;32;20094;-71
2021/06/17 12:08:24;;;;;;;2.08;1.48;;;25.00;33.00;;;;;;4321026;32;20147;-70
2021/06/17 12:10:57;;;;;;;2.50;1.58;;;25.00;33.20;;;;;;4347236;32;20058;-70
2021/06/17 12:13:24;;;;;;;4.00;2.05;;;25.30;33.90;;;;;;4343319;32;20104;-71
2021/06/17 12:15:57;;;;;;;5.45;1.60;;;25.30;33.60;;;;;;4319614;32;20077;-70
2021/06/17 12:18:23;;;;;;;2.85;1.52;;;25.00;33.40;;;;;;4331018;32;20631;-73
2021/06/17 12:20:50;;;;;;;2.17;1.40;;;25.20;33.60;;;;;;4326240;32;20075;-73
2021/06/17 12:23:24;;;;;;;1.90;1.67;;;25.20;33.40;;;;;;4331560;32;20093;-72
2021/06/17 12:25:58;;;;;;;3.10;1.67;;;25.10;33.20;;;;;;4344711;32;20280;-73
2021/06/17 12:28:25;;;;;;;1.58;1.48;;;25.10;33.30;;;;;;4352324;32;20529;-73
2021/06/17 12:30:52;;;;;;;3.78;2.10;;;25.00;32.80;;;;;;4340474;32;20151;-72
2021/06/17 12:33:23;;;;;;;2.53;1.35;;;24.80;33.30;;;;;;4328630;32;20082;-67
2021/06/17 12:35:52;;;;;;;3.85;1.55;;;24.70;33.50;;;;;;4324858;32;20114;-70
2021/06/17 12:38:36;;;;;;;4.30;1.50;;;24.90;33.30;;;;;;4340198;32;20160;-69
2021/06/17 12:41:19;;;;;;;5.07;1.80;;;25.00;33.00;;;;;;4341438;32;20556;-70
2021/06/17 12:43:52;;;;;;;2.47;1.60;;;25.30;33.10;;;;;;4330886;32;20569;-73
2021/06/17 12:46:24;;;;;;;2.85;1.67;;;25.10;32.70;;;;;;4338005;32;20070;-74
2021/06/17 12:54:24;;;;;;;5.47;1.62;;;25.00;33.40;;;;;;4347237;32;20094;-73
2021/06/17 12:57:25;;;;;;;3.03;1.45;;;25.10;33.40;;;;;;4341621;32;20086;-71
2021/06/17 13:00:04;;;;;;;6.80;1.95;;;25.00;32.90;;;;;;4347491;32;20116;-74
2021/06/17 13:02:31;;;;;;;3.08;1.48;;;25.20;33.30;;;;;;4351250;32;20074;-73
2021/06/17 13:05:05;;;;;;;3.67;2.10;;;25.10;33.30;;;;;;4342334;32;20080;-75
2021/06/17 13:07:33;;;;;;;1.60;1.48;;;25.00;33.80;;;;;;4332053;32;20162;-73
2021/06/17 13:10:23;;;;;;;4.43;1.58;;;24.90;34.10;;;;;;4345887;32;20074;-76
2021/06/17 13:12:50;;;;;;;2.35;1.60;;;25.00;34.10;;;;;;4344858;32;20086;-69
2021/06/17 13:15:18;;;;;;;3.60;1.52;;;24.80;33.80;;;;;;4342999;32;20085;-71
2021/06/17 13:17:50;;;;;;;1.48;1.37;;;25.10;34.10;;;;;;4352564;32;20062;-66